createdAt,value
2023-02-27T00:00:39.151Z,1014.2
2023-02-27T00:02:39.220Z,1014.1
2023-02-27T00:04:39.252Z,1014.1
2023-02-27T00:06:40.535Z,1014
2023-02-27T00:08:39.250Z,1014
2023-02-27T00:10:39.235Z,1014
2023-02-27T00:12:39.184Z,1014
2023-02-27T00:14:39.123Z,1013.9
2023-02-27T00:16:39.155Z,1013.9
2023-02-27T00:18:39.170Z,1013.9
2023-02-27T00:20:39.207Z,1013.9
2023-02-27T00:22:39.153Z,1013.9
2023-02-27T00:24:39.078Z,1013.9
2023-02-27T00:26:39.098Z,1013.8
2023-02-27T00:28:39.110Z,1013.8
2023-02-27T00:30:39.144Z,1013.8
2023-02-27T00:32:45.066Z,1013.8
2023-02-27T00:34:05.262Z,1013.8
2023-02-27T00:34:41.797Z,1013.8
2023-02-27T00:36:39.083Z,1013.8
2023-02-27T00:38:39.072Z,1013.8
2023-02-27T00:40:39.224Z,1013.8
2023-02-27T00:42:39.092Z,1013.8
2023-02-27T00:44:39.072Z,1013.9
2023-02-27T00:46:39.226Z,1013.8
2023-02-27T00:48:39.134Z,1013.9
2023-02-27T00:50:39.091Z,1013.9
2023-02-27T00:52:39.145Z,1013.9
2023-02-27T00:54:39.056Z,1013.9
2023-02-27T00:56:39.050Z,1013.9
2023-02-27T00:58:39.080Z,1013.9
2023-02-27T01:00:39.225Z,1013.9
2023-02-27T01:02:39.132Z,1013.8
2023-02-27T01:04:39.177Z,1013.8
2023-02-27T01:06:39.043Z,1013.9
2023-02-27T01:08:39.080Z,1013.8
2023-02-27T01:10:39.083Z,1013.9
2023-02-27T01:12:39.057Z,1013.9
2023-02-27T01:14:39.034Z,1013.9
2023-02-27T01:16:39.172Z,1013.9
2023-02-27T01:18:39.148Z,1013.9
2023-02-27T01:20:39.720Z,1013.9
2023-02-27T01:22:39.096Z,1013.9
2023-02-27T01:24:39.149Z,1013.9
2023-02-27T01:26:39.497Z,1013.9
2023-02-27T01:28:39.279Z,1013.9
2023-02-27T01:30:39.125Z,1013.9
2023-02-27T01:32:39.128Z,1013.9
2023-02-27T01:34:39.162Z,1013.9
2023-02-27T01:36:39.123Z,1014
2023-02-27T01:38:39.509Z,1014
2023-02-27T01:40:39.352Z,1014
2023-02-27T01:42:39.065Z,1013.9
2023-02-27T01:44:39.412Z,1013.9
2023-02-27T01:46:39.104Z,1013.9
2023-02-27T01:48:39.113Z,1013.9
2023-02-27T01:50:39.112Z,1013.9
2023-02-27T01:52:39.624Z,1014
2023-02-27T01:54:39.105Z,1014
2023-02-27T01:56:39.210Z,1013.9
2023-02-27T01:58:39.197Z,1013.9
2023-02-27T02:00:39.035Z,1013.9
2023-02-27T02:02:39.045Z,1013.9
2023-02-27T02:04:39.050Z,1014
2023-02-27T02:06:39.017Z,1013.9
2023-02-27T02:08:38.995Z,1014
2023-02-27T02:10:39.204Z,1014
2023-02-27T02:12:39.060Z,1013.9
2023-02-27T02:14:39.130Z,1013.9
2023-02-27T02:16:39.090Z,1013.9
2023-02-27T02:18:39.031Z,1013.9
2023-02-27T02:20:39.036Z,1013.9
2023-02-27T02:22:39.015Z,1013.9
2023-02-27T02:24:39.033Z,1013.9
2023-02-27T02:26:38.936Z,1013.9
2023-02-27T02:28:39.208Z,1013.9
2023-02-27T02:30:38.987Z,1013.9
2023-02-27T02:32:38.987Z,1013.9
2023-02-27T02:34:39.060Z,1013.9
2023-02-27T02:36:39.033Z,1014
2023-02-27T02:38:39.055Z,1014
2023-02-27T02:40:38.988Z,1014
2023-02-27T02:42:39.062Z,1014
2023-02-27T02:44:39.016Z,1014
2023-02-27T02:46:38.979Z,1013.9
2023-02-27T02:48:39.028Z,1013.9
2023-02-27T02:50:39.102Z,1013.9
2023-02-27T02:52:38.969Z,1013.9
2023-02-27T02:54:38.925Z,1013.9
2023-02-27T02:56:40.044Z,1014
2023-02-27T02:58:39.016Z,1013.9
2023-02-27T03:00:39.050Z,1014
2023-02-27T03:02:39.106Z,1014
2023-02-27T03:04:39.036Z,1014
2023-02-27T03:06:38.868Z,1014
2023-02-27T03:08:38.916Z,1014
2023-02-27T03:10:38.981Z,1014
2023-02-27T03:12:38.913Z,1013.9
2023-02-27T03:14:38.896Z,1014
2023-02-27T03:16:39.035Z,1014.1
2023-02-27T03:18:38.901Z,1014.2
2023-02-27T03:20:38.889Z,1014.2
2023-02-27T03:22:38.890Z,1014.2
2023-02-27T03:24:38.910Z,1014.2
2023-02-27T03:26:38.907Z,1014.1
2023-02-27T03:28:38.879Z,1014.2
2023-02-27T03:30:38.944Z,1014.2
2023-02-27T03:32:38.885Z,1014.2
2023-02-27T03:34:38.890Z,1014.2
2023-02-27T03:36:38.870Z,1014.3
2023-02-27T03:38:40.359Z,1014.3
2023-02-27T03:40:38.851Z,1014.3
2023-02-27T03:42:38.837Z,1014.3
2023-02-27T03:44:38.870Z,1014.3
2023-02-27T03:46:40.302Z,1014.3
2023-02-27T03:48:38.849Z,1014.2
2023-02-27T03:50:38.905Z,1014.2
2023-02-27T03:52:38.838Z,1014.1
2023-02-27T03:54:38.839Z,1014.2
2023-02-27T03:56:38.875Z,1014.2
2023-02-27T03:58:38.817Z,1014.2
2023-02-27T04:00:38.824Z,1014.2
2023-02-27T04:02:38.886Z,1014.2
2023-02-27T04:04:38.877Z,1014.3
2023-02-27T04:06:38.832Z,1014.3
2023-02-27T04:08:38.905Z,1014.3
2023-02-27T04:10:38.882Z,1014.3
2023-02-27T04:12:38.813Z,1014.3
2023-02-27T04:14:38.822Z,1014.3
2023-02-27T04:16:38.849Z,1014.3
2023-02-27T04:18:41.303Z,1014.3
2023-02-27T04:20:38.777Z,1014.3
2023-02-27T04:22:38.808Z,1014.3
2023-02-27T04:24:38.809Z,1014.2
2023-02-27T04:26:38.823Z,1014.2
2023-02-27T04:28:38.794Z,1014.2
2023-02-27T04:30:38.841Z,1014.2
2023-02-27T04:32:40.142Z,1014.2
2023-02-27T04:34:38.848Z,1014.3
2023-02-27T04:36:38.786Z,1014.3
2023-02-27T04:38:38.847Z,1014.3
2023-02-27T04:40:38.864Z,1014.3
2023-02-27T04:42:38.815Z,1014.3
2023-02-27T04:44:38.755Z,1014.3
2023-02-27T04:46:38.841Z,1014.3
2023-02-27T04:48:38.834Z,1014.3
2023-02-27T04:50:38.798Z,1014.3
2023-02-27T04:52:38.791Z,1014.3
2023-02-27T04:54:38.787Z,1014.3
2023-02-27T04:56:38.764Z,1014.3
2023-02-27T04:58:39.849Z,1014.3
2023-02-27T05:00:38.801Z,1014.3
2023-02-27T05:02:38.813Z,1014.3
2023-02-27T05:04:38.765Z,1014.4
2023-02-27T05:06:38.802Z,1014.4
2023-02-27T05:09:01.975Z,1014.4
2023-02-27T05:09:57.580Z,1014.4
2023-02-27T05:11:57.954Z,1014.5
2023-02-27T05:13:57.559Z,1014.5
2023-02-27T05:15:57.620Z,1014.6
2023-02-27T05:17:57.622Z,1014.6
2023-02-27T05:19:57.606Z,1014.6
2023-02-27T05:21:57.671Z,1014.7
2023-02-27T05:23:57.643Z,1014.7
2023-02-27T05:25:57.548Z,1014.7
2023-02-27T05:27:57.538Z,1014.7
2023-02-27T05:29:57.563Z,1014.8
2023-02-27T05:31:57.686Z,1014.8
2023-02-27T05:33:57.517Z,1014.8
2023-02-27T05:35:57.641Z,1014.8
2023-02-27T05:37:57.531Z,1014.9
2023-02-27T05:39:57.512Z,1014.9
2023-02-27T05:41:57.511Z,1014.9
2023-02-27T05:43:57.491Z,1015
2023-02-27T05:45:57.589Z,1015
2023-02-27T05:47:57.508Z,1015
2023-02-27T05:49:57.515Z,1015.1
2023-02-27T05:51:57.532Z,1015.1
2023-02-27T05:53:57.627Z,1015.1
2023-02-27T05:55:57.570Z,1015.1
2023-02-27T05:57:58.565Z,1015.1
2023-02-27T05:59:57.512Z,1015.2
2023-02-27T06:01:57.547Z,1015.1
2023-02-27T06:03:57.609Z,1015.2
2023-02-27T06:05:57.502Z,1015.2
2023-02-27T06:07:57.495Z,1015.2
2023-02-27T06:09:57.579Z,1015.3
2023-02-27T06:11:57.534Z,1015.2
2023-02-27T06:13:57.535Z,1015.2
2023-02-27T06:15:57.443Z,1015.2
2023-02-27T06:17:57.446Z,1015.2
2023-02-27T06:19:57.473Z,1015.2
2023-02-27T06:21:57.487Z,1015.2
2023-02-27T06:23:57.458Z,1015.2
2023-02-27T06:25:57.512Z,1015.3
2023-02-27T06:27:57.525Z,1015.3
2023-02-27T06:29:57.553Z,1015.3
2023-02-27T06:31:57.569Z,1015.3
2023-02-27T06:33:57.441Z,1015.3
2023-02-27T06:35:57.492Z,1015.3
2023-02-27T06:37:57.471Z,1015.3
2023-02-27T06:39:57.510Z,1015.3
2023-02-27T06:41:57.469Z,1015.4
2023-02-27T06:43:57.408Z,1015.4
2023-02-27T06:45:57.473Z,1015.4
2023-02-27T06:47:57.456Z,1015.4
2023-02-27T06:49:57.484Z,1015.4
2023-02-27T06:51:57.454Z,1015.4
2023-02-27T06:53:57.423Z,1015.3
2023-02-27T06:55:57.566Z,1015.3
2023-02-27T06:57:57.521Z,1015.3
2023-02-27T06:59:57.460Z,1015.3
2023-02-27T07:01:57.463Z,1015.3
2023-02-27T07:03:57.477Z,1015.3
2023-02-27T07:05:57.422Z,1015.3
2023-02-27T07:07:59.960Z,1015.4
2023-02-27T07:09:57.388Z,1015.4
2023-02-27T07:11:57.436Z,1015.4
2023-02-27T07:13:57.456Z,1015.3
2023-02-27T07:15:57.394Z,1015.3
2023-02-27T07:17:57.389Z,1015.3
2023-02-27T07:19:57.378Z,1015.3
2023-02-27T07:21:57.423Z,1015.2
2023-02-27T07:23:57.403Z,1015.3
2023-02-27T07:25:57.361Z,1015.3
2023-02-27T07:27:57.430Z,1015.4
2023-02-27T07:29:57.476Z,1015.4
2023-02-27T07:31:57.393Z,1015.4
2023-02-27T07:33:57.370Z,1015.4
2023-02-27T07:35:57.498Z,1015.4
2023-02-27T07:37:57.401Z,1015.4
2023-02-27T07:39:57.402Z,1015.4
2023-02-27T07:41:57.447Z,1015.4
2023-02-27T07:43:57.389Z,1015.4
2023-02-27T07:45:57.432Z,1015.4
2023-02-27T07:47:57.401Z,1015.4
2023-02-27T07:49:57.340Z,1015.4
2023-02-27T07:51:57.366Z,1015.4
2023-02-27T07:53:57.641Z,1015.4
2023-02-27T07:55:57.397Z,1015.4
2023-02-27T07:57:57.384Z,1015.4
2023-02-27T07:59:57.397Z,1015.4
2023-02-27T08:01:57.426Z,1015.4
2023-02-27T08:03:57.361Z,1015.3
2023-02-27T08:05:57.392Z,1015.3
2023-02-27T08:07:57.367Z,1015.3
2023-02-27T08:09:57.397Z,1015.3
2023-02-27T08:11:57.316Z,1015.3
2023-02-27T08:14:01.712Z,1015.3
2023-02-27T08:15:57.400Z,1015.3
2023-02-27T08:17:57.386Z,1015.3
2023-02-27T08:19:57.360Z,1015.3
2023-02-27T08:21:57.338Z,1015.3
2023-02-27T08:23:57.305Z,1015.3
2023-02-27T08:25:57.328Z,1015.3
2023-02-27T08:27:57.309Z,1015.2
2023-02-27T08:29:57.378Z,1015.3
2023-02-27T08:31:57.487Z,1015.2
2023-02-27T08:34:09.308Z,1015.3
2023-02-27T08:35:57.377Z,1015.2
2023-02-27T08:37:57.320Z,1015.2
2023-02-27T08:39:57.297Z,1015.2
2023-02-27T08:41:57.404Z,1015.2
2023-02-27T08:43:57.396Z,1015.3
2023-02-27T08:45:57.342Z,1015.3
2023-02-27T08:47:57.317Z,1015.3
2023-02-27T08:49:57.274Z,1015.4
2023-02-27T08:51:57.310Z,1015.4
2023-02-27T08:53:57.292Z,1015.4
2023-02-27T08:55:57.342Z,1015.4
2023-02-27T08:57:57.299Z,1015.4
2023-02-27T08:59:57.317Z,1015.4
2023-02-27T09:01:57.253Z,1015.4
2023-02-27T09:03:57.793Z,1015.5
2023-02-27T09:05:57.258Z,1015.5
2023-02-27T09:07:57.273Z,1015.5
2023-02-27T09:09:57.265Z,1015.5
2023-02-27T09:11:57.254Z,1015.6
2023-02-27T09:13:57.374Z,1015.6
2023-02-27T09:15:57.360Z,1015.6
2023-02-27T09:17:58.233Z,1015.6
2023-02-27T09:19:57.523Z,1015.6
2023-02-27T09:21:57.250Z,1015.6
2023-02-27T09:23:58.026Z,1015.6
2023-02-27T09:25:57.213Z,1015.6
2023-02-27T09:27:57.232Z,1015.7
2023-02-27T09:29:57.198Z,1015.7
2023-02-27T09:31:57.283Z,1015.7
2023-02-27T09:33:57.219Z,1015.7
2023-02-27T09:35:57.290Z,1015.7
2023-02-27T09:37:57.276Z,1015.8
2023-02-27T09:39:57.249Z,1015.8
2023-02-27T09:41:57.204Z,1015.8
2023-02-27T09:43:58.433Z,1015.8
2023-02-27T09:45:57.222Z,1015.9
2023-02-27T09:47:57.270Z,1015.9
2023-02-27T09:49:57.238Z,1015.9
2023-02-27T09:51:57.225Z,1015.9
2023-02-27T09:53:57.235Z,1015.8
2023-02-27T09:55:57.218Z,1015.8
2023-02-27T09:57:57.192Z,1015.9
2023-02-27T09:59:57.215Z,1015.9
2023-02-27T10:01:57.218Z,1015.9
2023-02-27T10:03:57.184Z,1016
2023-02-27T10:05:57.175Z,1016
2023-02-27T10:07:57.246Z,1016
2023-02-27T10:09:57.230Z,1016
2023-02-27T10:11:57.133Z,1016.1
2023-02-27T10:13:57.349Z,1016.1
2023-02-27T10:15:57.177Z,1016.1
2023-02-27T10:17:57.243Z,1016.2
2023-02-27T10:19:57.198Z,1016.2
2023-02-27T10:21:57.168Z,1016.2
2023-02-27T10:23:57.302Z,1016.2
2023-02-27T10:25:57.218Z,1016.3
2023-02-27T10:27:57.188Z,1016.4
2023-02-27T10:29:57.162Z,1016.4
2023-02-27T10:31:57.164Z,1016.4
2023-02-27T10:33:57.354Z,1016.4
2023-02-27T10:35:57.217Z,1016.4
2023-02-27T10:37:57.126Z,1016.4
2023-02-27T10:39:57.200Z,1016.4
2023-02-27T10:41:57.160Z,1016.3
2023-02-27T10:43:57.172Z,1016.2
2023-02-27T10:45:57.157Z,1016.2
2023-02-27T10:47:57.121Z,1016.3
2023-02-27T10:49:57.125Z,1016.4
2023-02-27T10:51:57.071Z,1016.4
2023-02-27T10:53:57.126Z,1016.3
2023-02-27T10:55:57.148Z,1016.3
2023-02-27T10:57:57.157Z,1016.3
2023-02-27T10:59:58.169Z,1016.3
2023-02-27T11:01:57.142Z,1016.3
2023-02-27T11:03:57.154Z,1016.3
2023-02-27T11:05:57.121Z,1016.4
2023-02-27T11:07:57.145Z,1016.4
2023-02-27T11:09:57.074Z,1016.5
2023-02-27T11:11:57.038Z,1016.6
2023-02-27T11:13:57.094Z,1016.6
2023-02-27T11:15:57.199Z,1016.6
2023-02-27T11:17:57.074Z,1016.6
2023-02-27T11:19:57.171Z,1016.8
2023-02-27T11:21:57.087Z,1016.8
2023-02-27T11:23:57.177Z,1016.8
2023-02-27T11:25:57.144Z,1016.6
2023-02-27T11:27:57.319Z,1016.6
2023-02-27T11:29:57.151Z,1016.6
2023-02-27T11:31:57.278Z,1016.6
2023-02-27T11:33:57.127Z,1016.6
2023-02-27T11:35:57.906Z,1016.6
2023-02-27T11:37:57.127Z,1016.6
2023-02-27T11:39:57.110Z,1016.6
2023-02-27T11:41:57.029Z,1016.6
2023-02-27T11:43:57.207Z,1016.6
2023-02-27T11:46:05.576Z,1016.7
2023-02-27T11:47:58.723Z,1016.7
2023-02-27T11:49:58.517Z,1016.8
2023-02-27T11:51:58.274Z,1016.7
2023-02-27T11:53:57.161Z,1016.7
2023-02-27T11:55:57.118Z,1016.7
2023-02-27T11:57:57.076Z,1016.7
2023-02-27T11:59:57.153Z,1016.7
2023-02-27T12:01:57.065Z,1016.8
2023-02-27T12:03:57.146Z,1016.8
2023-02-27T12:05:57.026Z,1016.7
2023-02-27T12:07:57.014Z,1016.6
2023-02-27T12:09:58.227Z,1016.6
2023-02-27T12:11:58.203Z,1016.6
2023-02-27T12:13:57.122Z,1016.7
2023-02-27T12:15:57.178Z,1016.7
2023-02-27T12:17:58.282Z,1016.7
2023-02-27T12:19:57.131Z,1016.6
2023-02-27T12:21:57.173Z,1016.5
2023-02-27T12:23:58.286Z,1016.5
2023-02-27T12:25:58.346Z,1016.4
2023-02-27T12:27:57.253Z,1016.3
2023-02-27T12:30:02.695Z,1016.3
2023-02-27T12:31:57.469Z,1016.3
2023-02-27T12:33:58.441Z,1016.4
2023-02-27T12:35:57.081Z,1016.4
2023-02-27T12:37:57.070Z,1016.3
2023-02-27T12:39:57.007Z,1016.3
2023-02-27T12:41:57.101Z,1016.3
2023-02-27T12:43:57.019Z,1016.2
2023-02-27T12:45:57.208Z,1016.2
2023-02-27T12:47:57.138Z,1016.1
2023-02-27T12:49:57.061Z,1016.1
2023-02-27T12:51:57.110Z,1016.1
2023-02-27T12:53:58.311Z,1016.1
2023-02-27T12:55:58.446Z,1016.1
2023-02-27T12:57:58.234Z,1016.1
2023-02-27T12:59:57.113Z,1016.1
2023-02-27T13:01:57.068Z,1016.1
2023-02-27T13:03:57.128Z,1016.1
2023-02-27T13:05:56.961Z,1016.1
2023-02-27T13:07:58.153Z,1016.2
2023-02-27T13:09:58.462Z,1016.3
2023-02-27T13:11:57.038Z,1016.3
2023-02-27T13:13:57.084Z,1016.3
2023-02-27T13:15:57.062Z,1016.4
2023-02-27T13:17:57.005Z,1016.5
2023-02-27T13:19:56.956Z,1016.5
2023-02-27T13:21:57.028Z,1016.5
2023-02-27T13:23:57.101Z,1016.5
2023-02-27T13:25:56.917Z,1016.4
2023-02-27T13:27:57.066Z,1016.4
2023-02-27T13:29:58.169Z,1016.4
2023-02-27T13:31:58.568Z,1016.4
2023-02-27T13:33:56.980Z,1016.5
2023-02-27T13:35:56.994Z,1016.6
2023-02-27T13:38:02.986Z,1016.7
2023-02-27T13:39:57.035Z,1016.8
2023-02-27T13:41:56.962Z,1016.7
2023-02-27T13:43:57.119Z,1016.7
2023-02-27T13:45:57.172Z,1016.8
2023-02-27T13:47:57.051Z,1016.7
2023-02-27T13:49:57.083Z,1016.6
2023-02-27T13:51:57.036Z,1016.6
2023-02-27T13:53:57.004Z,1016.6
2023-02-27T13:55:56.962Z,1016.6
2023-02-27T13:57:57.984Z,1016.5
2023-02-27T13:59:58.364Z,1016.6
2023-02-27T14:01:56.966Z,1016.7
2023-02-27T14:03:58.008Z,1016.8
2023-02-27T14:05:57.036Z,1016.7
2023-02-27T14:07:56.919Z,1016.7
2023-02-27T14:09:58.297Z,1016.6
2023-02-27T14:11:56.969Z,1016.6
2023-02-27T14:13:56.955Z,1016.6
2023-02-27T14:15:57.050Z,1016.6
2023-02-27T14:18:14.154Z,1016.6
2023-02-27T14:19:57.295Z,1016.6
2023-02-27T14:21:56.939Z,1016.6
2023-02-27T14:23:56.895Z,1016.7
2023-02-27T14:25:56.994Z,1016.7
2023-02-27T14:27:58.304Z,1016.7
2023-02-27T14:29:56.902Z,1016.7
2023-02-27T14:31:57.013Z,1016.6
2023-02-27T14:33:56.916Z,1016.6
2023-02-27T14:35:56.901Z,1016.6
2023-02-27T14:37:12.708Z,1016.6
2023-02-27T14:37:56.892Z,1016.6
2023-02-27T14:39:56.947Z,1016.7
2023-02-27T14:41:58.019Z,1016.7
2023-02-27T14:43:56.897Z,1016.6
2023-02-27T14:45:56.958Z,1016.6
2023-02-27T14:47:56.992Z,1016.5
2023-02-27T14:49:57.061Z,1016.4
2023-02-27T14:51:56.903Z,1016.2
2023-02-27T14:53:58.335Z,1016.1
2023-02-27T14:55:56.884Z,1016
2023-02-27T14:57:56.831Z,1015.9
2023-02-27T14:59:56.979Z,1015.9
2023-02-27T15:01:57.038Z,1015.9
2023-02-27T15:03:57.068Z,1015.8
2023-02-27T15:05:59.365Z,1015.6
2023-02-27T15:07:56.936Z,1015.6
2023-02-27T15:09:56.950Z,1015.5
2023-02-27T15:12:03.788Z,1015.5
2023-02-27T15:13:56.863Z,1015.5
2023-02-27T15:16:00.109Z,1015.4
2023-02-27T15:17:57.974Z,1015.4
2023-02-27T15:19:56.882Z,1015.4
2023-02-27T15:21:56.849Z,1015.4
2023-02-27T15:23:56.864Z,1015.5
2023-02-27T15:26:02.455Z,1015.6
2023-02-27T15:27:56.870Z,1015.7
2023-02-27T15:29:56.933Z,1015.8
2023-02-27T15:31:58.012Z,1015.8
2023-02-27T15:33:56.995Z,1015.8
2023-02-27T15:35:57.180Z,1015.9
2023-02-27T15:37:56.857Z,1016
2023-02-27T15:39:56.829Z,1016.1
2023-02-27T15:41:56.814Z,1016.2
2023-02-27T15:43:56.964Z,1016.2
2023-02-27T15:45:56.892Z,1016.2
2023-02-27T15:47:56.938Z,1016.2
2023-02-27T15:49:56.868Z,1016.1
2023-02-27T15:51:56.792Z,1016.1
2023-02-27T15:53:57.459Z,1016.1
2023-02-27T15:55:58.298Z,1016.3
2023-02-27T15:58:02.998Z,1016.2
2023-02-27T15:59:56.797Z,1016.2
2023-02-27T16:01:56.953Z,1016.3
2023-02-27T16:03:56.815Z,1016.2
2023-02-27T16:05:56.948Z,1016.1
2023-02-27T16:07:57.583Z,1016.2
2023-02-27T16:09:56.931Z,1016.2
2023-02-27T16:11:56.930Z,1016.1
2023-02-27T16:13:56.841Z,1016.1
2023-02-27T16:15:56.922Z,1016.1
2023-02-27T16:17:58.139Z,1016.2
2023-02-27T16:19:59.240Z,1016.2
2023-02-27T16:21:56.774Z,1016.2
2023-02-27T16:23:56.743Z,1016.1
2023-02-27T16:25:57.949Z,1016.1
2023-02-27T16:27:56.789Z,1016.1
2023-02-27T16:29:56.762Z,1016.1
2023-02-27T16:31:56.853Z,1016.1
2023-02-27T16:33:56.696Z,1016.1
2023-02-27T16:35:58.066Z,1016.1
2023-02-27T16:37:56.766Z,1016.1
2023-02-27T16:39:56.807Z,1016.1
2023-02-27T16:41:56.823Z,1016.2
2023-02-27T16:43:58.017Z,1016.1
2023-02-27T16:45:57.316Z,1016.1
2023-02-27T16:47:56.833Z,1016.1
2023-02-27T16:50:07.232Z,1016.1
2023-02-27T16:51:58.191Z,1016.3
2023-02-27T16:53:56.808Z,1016.3
2023-02-27T16:55:56.726Z,1016.3
2023-02-27T16:57:56.687Z,1016.3
2023-02-27T16:59:56.823Z,1016.2
2023-02-27T17:01:56.747Z,1016.1
2023-02-27T17:03:58.301Z,1016
2023-02-27T17:05:56.770Z,1016
2023-02-27T17:07:56.821Z,1016
2023-02-27T17:09:56.739Z,1016
2023-02-27T17:11:56.722Z,1015.9
2023-02-27T17:13:56.704Z,1015.9
2023-02-27T17:15:57.882Z,1015.8
2023-02-27T17:17:56.699Z,1015.7
2023-02-27T17:19:58.262Z,1015.6
2023-02-27T17:21:56.887Z,1015.5
2023-02-27T17:23:56.697Z,1015.5
2023-02-27T17:25:56.705Z,1015.5
2023-02-27T17:27:56.660Z,1015.4
2023-02-27T17:29:56.735Z,1015.4
2023-02-27T17:31:56.753Z,1015.3
2023-02-27T17:33:56.754Z,1015.2
2023-02-27T17:35:56.706Z,1015.2
2023-02-27T17:37:56.670Z,1015.2
2023-02-27T17:39:58.136Z,1015.2
2023-02-27T17:41:56.695Z,1015.1
2023-02-27T17:43:57.852Z,1015.1
2023-02-27T17:45:57.004Z,1015
2023-02-27T17:47:58.198Z,1014.9
2023-02-27T17:49:56.686Z,1014.9
2023-02-27T17:51:56.720Z,1014.8
2023-02-27T17:53:58.152Z,1014.8
2023-02-27T17:55:57.117Z,1014.8
2023-02-27T17:57:56.791Z,1014.7
2023-02-27T17:59:56.683Z,1014.7
2023-02-27T18:01:56.610Z,1014.6
2023-02-27T18:03:56.625Z,1014.7
2023-02-27T18:05:56.615Z,1014.7
2023-02-27T18:07:56.690Z,1014.5
2023-02-27T18:09:56.623Z,1014.5
2023-02-27T18:11:57.781Z,1014.3
2023-02-27T18:13:56.651Z,1014.2
2023-02-27T18:15:56.724Z,1014.1
2023-02-27T18:17:56.685Z,1014.1
2023-02-27T18:19:57.790Z,1014.1
2023-02-27T18:21:56.792Z,1014.1
2023-02-27T18:23:56.766Z,1014
2023-02-27T18:25:57.747Z,1013.9
2023-02-27T18:27:56.660Z,1013.7
2023-02-27T18:29:56.828Z,1013.6
2023-02-27T18:31:56.660Z,1013.6
2023-02-27T18:33:56.791Z,1013.5
2023-02-27T18:35:56.638Z,1013.6
2023-02-27T18:37:56.592Z,1013.6
2023-02-27T18:39:57.925Z,1013.6
2023-02-27T18:41:57.672Z,1013.5
2023-02-27T18:43:56.646Z,1013.5
2023-02-27T18:45:56.746Z,1013.5
2023-02-27T18:47:56.631Z,1013.5
2023-02-27T18:49:56.820Z,1013.4
2023-02-27T18:51:56.585Z,1013.5
2023-02-27T18:53:56.714Z,1013.5
2023-02-27T18:55:56.606Z,1013.4
2023-02-27T18:57:56.568Z,1013.3
2023-02-27T18:59:56.592Z,1013.2
2023-02-27T19:01:57.577Z,1013.1
2023-02-27T19:03:56.654Z,1013
2023-02-27T19:05:56.564Z,1013
2023-02-27T19:07:56.629Z,1013
2023-02-27T19:09:56.574Z,1012.9
2023-02-27T19:11:56.700Z,1012.9
2023-02-27T19:13:56.622Z,1012.8
2023-02-27T19:15:56.587Z,1012.8
2023-02-27T19:17:56.556Z,1012.7
2023-02-27T19:19:56.926Z,1012.7
2023-02-27T19:22:00.969Z,1012.7
2023-02-27T19:23:58.027Z,1012.6
2023-02-27T19:26:00.868Z,1012.5
2023-02-27T19:27:59.185Z,1012.4
2023-02-27T19:28:42.481Z,1012.3
2023-02-27T19:30:29.882Z,1012.2
2023-02-27T19:32:29.786Z,1012.1
2023-02-27T19:34:29.749Z,1012.1
2023-02-27T19:36:33.917Z,1012
2023-02-27T19:38:29.725Z,1012
2023-02-27T19:40:29.808Z,1012
2023-02-27T19:42:29.788Z,1011.9
2023-02-27T19:44:30.975Z,1011.9
2023-02-27T19:46:30.209Z,1011.7
2023-02-27T19:48:29.750Z,1011.6
2023-02-27T19:50:29.740Z,1011.5
2023-02-27T19:52:29.835Z,1011.4
2023-02-27T19:54:29.704Z,1011.2
2023-02-27T19:56:30.259Z,1011.2
2023-02-27T19:58:29.636Z,1011.2
2023-02-27T20:00:29.761Z,1011.2
2023-02-27T20:02:29.711Z,1011.2
2023-02-27T20:04:31.220Z,1011.2
2023-02-27T20:06:31.000Z,1011.1
2023-02-27T20:08:29.629Z,1011.2
2023-02-27T20:10:29.967Z,1011.1
2023-02-27T20:12:29.944Z,1011.1
2023-02-27T20:14:32.180Z,1010.9
2023-02-27T20:16:30.102Z,1010.8
2023-02-27T20:18:29.744Z,1010.8
2023-02-27T20:20:32.034Z,1010.7
2023-02-27T20:22:29.728Z,1010.7
2023-02-27T20:24:29.654Z,1010.8
2023-02-27T20:26:29.873Z,1010.7
2023-02-27T20:28:29.639Z,1010.6
2023-02-27T20:30:29.633Z,1010.7
2023-02-27T20:32:29.816Z,1010.7
2023-02-27T20:34:29.643Z,1010.8
2023-02-27T20:36:30.868Z,1010.8
2023-02-27T20:38:29.632Z,1010.6
2023-02-27T20:40:32.959Z,1010.6
2023-02-27T20:42:30.110Z,1010.6
2023-02-27T20:44:29.734Z,1010.5
2023-02-27T20:46:29.821Z,1010.5
2023-02-27T20:48:29.627Z,1010.3
2023-02-27T20:50:29.611Z,1010.1
2023-02-27T20:52:29.638Z,1010.1
2023-02-27T20:54:29.639Z,1010.1
2023-02-27T20:56:32.586Z,1010.2
2023-02-27T20:58:29.678Z,1010.1
2023-02-27T21:00:30.804Z,1010.1
2023-02-27T21:02:29.681Z,1010.2
2023-02-27T21:04:29.701Z,1010.1
2023-02-27T21:06:29.552Z,1010
2023-02-27T21:08:29.628Z,1009.9
2023-02-27T21:10:29.708Z,1009.8
2023-02-27T21:12:29.708Z,1009.6
2023-02-27T21:14:29.650Z,1009.6
2023-02-27T21:16:29.648Z,1009.6
2023-02-27T21:18:29.642Z,1009.5
2023-02-27T21:20:29.590Z,1009.4
2023-02-27T21:22:43.409Z,1009.3
2023-02-27T21:24:29.667Z,1009.3
2023-02-27T21:26:29.675Z,1009.4
2023-02-27T21:28:29.666Z,1009.4
2023-02-27T21:30:29.708Z,1009.3
2023-02-27T21:32:29.589Z,1009.2
2023-02-27T21:34:29.610Z,1009.2
2023-02-27T21:36:29.768Z,1009.2
2023-02-27T21:38:29.697Z,1009.2
2023-02-27T21:40:29.643Z,1009.1
2023-02-27T21:42:29.578Z,1009.2
2023-02-27T21:44:29.553Z,1009.1
2023-02-27T21:46:29.754Z,1009.1
2023-02-27T21:48:29.562Z,1009.1
2023-02-27T21:50:37.638Z,1009.1
2023-02-27T21:52:30.606Z,1009.1
2023-02-27T21:54:29.953Z,1009.1
2023-02-27T21:56:29.962Z,1009.2
2023-02-27T21:58:32.099Z,1009
2023-02-27T22:00:29.558Z,1009
2023-02-27T22:02:31.082Z,1008.9
2023-02-27T22:04:29.616Z,1008.8
2023-02-27T22:06:29.500Z,1008.6
2023-02-27T22:08:29.516Z,1008.4
2023-02-27T22:10:29.674Z,1008.5
2023-02-27T22:12:29.686Z,1008.6
2023-02-27T22:14:29.532Z,1008.5
2023-02-27T22:16:29.553Z,1008.3
2023-02-27T22:18:29.486Z,1008.3
2023-02-27T22:20:29.573Z,1007.9
2023-02-27T22:22:29.590Z,1007.7
2023-02-27T22:24:29.557Z,1007.8
2023-02-27T22:26:29.480Z,1007.7
2023-02-27T22:28:29.543Z,1007.6
2023-02-27T22:30:29.482Z,1007.5
2023-02-27T22:32:29.619Z,1007.5
2023-02-27T22:34:29.582Z,1007.5
2023-02-27T22:36:29.623Z,1007.4
2023-02-27T22:38:29.688Z,1007.4
2023-02-27T22:40:29.628Z,1007.4
2023-02-27T22:42:29.496Z,1007.3
2023-02-27T22:44:29.502Z,1007.2
2023-02-27T22:46:32.236Z,1007.1
2023-02-27T22:48:30.691Z,1007.1
2023-02-27T22:50:31.950Z,1007.1
2023-02-27T22:52:29.557Z,1007
2023-02-27T22:54:29.580Z,1006.9
2023-02-27T22:56:29.500Z,1006.7
2023-02-27T22:58:30.974Z,1006.6
2023-02-27T23:00:29.523Z,1006.6
2023-02-27T23:02:29.513Z,1006.5
2023-02-27T23:04:29.506Z,1006.3
2023-02-27T23:06:29.504Z,1006.2
2023-02-27T23:08:33.607Z,1006.1
2023-02-27T23:10:29.523Z,1006.1
2023-02-27T23:12:29.658Z,1005.9
2023-02-27T23:14:29.574Z,1005.7
2023-02-27T23:16:29.562Z,1005.7
2023-02-27T23:18:29.458Z,1005.7
2023-02-27T23:20:29.451Z,1005.7
2023-02-27T23:22:29.424Z,1005.7
2023-02-27T23:24:29.484Z,1005.7
2023-02-27T23:26:29.470Z,1005.6
2023-02-27T23:28:31.000Z,1005.6
2023-02-27T23:30:29.441Z,1005.6
2023-02-27T23:32:29.437Z,1005.5
2023-02-27T23:34:37.848Z,1005.5
2023-02-27T23:36:29.378Z,1005.5
2023-02-27T23:38:29.472Z,1005.6
2023-02-27T23:40:29.474Z,1005.5
2023-02-27T23:42:29.383Z,1005.5
2023-02-27T23:44:29.489Z,1005.4
2023-02-27T23:46:29.411Z,1005.4
2023-02-27T23:48:29.420Z,1005.5
2023-02-27T23:50:29.360Z,1005.5
2023-02-27T23:52:29.350Z,1005.4
2023-02-27T23:54:29.367Z,1005.3
2023-02-27T23:56:29.426Z,1005.2
2023-02-27T23:58:29.398Z,1005.1
